createdAt,value
2022-10-14T00:01:13.591Z,13.27
2022-10-14T00:03:41.148Z,12.20
2022-10-14T00:06:14.667Z,16.13
2022-10-14T00:08:42.546Z,11.30
2022-10-14T00:11:21.069Z,12.95
2022-10-14T00:13:48.612Z,13.77
2022-10-14T00:16:20.853Z,16.03
2022-10-14T00:18:48.306Z,15.05
2022-10-14T00:21:15.852Z,14.20
2022-10-14T00:23:43.424Z,16.83
2022-10-14T00:26:22.173Z,18.48
2022-10-14T00:28:49.910Z,14.53
2022-10-14T00:31:17.316Z,16.45
2022-10-14T00:33:47.846Z,17.88
2022-10-14T00:36:17.518Z,13.73
2022-10-14T00:38:45.705Z,16.52
2022-10-14T00:41:19.580Z,16.30
2022-10-14T00:44:05.373Z,19.30
2022-10-14T00:46:38.914Z,16.00
2022-10-14T00:49:30.757Z,18.80
2022-10-14T00:52:05.746Z,17.73
2022-10-14T00:54:44.811Z,16.27
2022-10-14T00:57:12.472Z,15.95
2022-10-14T00:59:40.014Z,14.13
2022-10-14T01:02:07.286Z,14.23
2022-10-14T01:04:37.221Z,15.70
2022-10-14T01:07:53.477Z,11.83
2022-10-14T01:10:29.212Z,12.55
2022-10-14T01:13:27.933Z,15.50
2022-10-14T01:16:15.816Z,14.52
2022-10-14T01:19:01.791Z,16.73
2022-10-14T01:21:42.232Z,17.90
2022-10-14T01:24:40.383Z,12.68
2022-10-14T01:27:07.534Z,17.08
2022-10-14T01:29:53.701Z,16.75
2022-10-14T01:32:34.245Z,17.73
2022-10-14T01:35:40.456Z,18.53
2022-10-14T01:38:20.135Z,17.45
2022-10-14T01:40:53.544Z,19.27
2022-10-14T01:43:23.738Z,19.05
2022-10-14T01:45:51.113Z,23.00
2022-10-14T01:48:21.434Z,15.93
2022-10-14T01:50:52.304Z,19.90
2022-10-14T01:53:26.136Z,20.13
2022-10-14T01:55:55.410Z,25.85
2022-10-14T01:58:27.136Z,21.70
2022-10-14T02:00:54.820Z,22.80
2022-10-14T02:03:22.042Z,25.27
2022-10-14T02:06:00.053Z,21.95
2022-10-14T02:08:29.729Z,23.15
2022-10-14T02:11:21.040Z,26.48
2022-10-14T02:14:15.640Z,24.00
2022-10-14T02:17:24.658Z,19.70
2022-10-14T02:20:08.080Z,22.92
2022-10-14T02:22:43.197Z,20.20
2022-10-14T02:25:20.049Z,17.48
2022-10-14T02:27:48.784Z,18.80
2022-10-14T02:30:18.070Z,19.60
2022-10-14T02:32:45.589Z,20.02
2022-10-14T02:35:17.281Z,21.83
2022-10-14T02:37:48.265Z,17.58
2022-10-14T02:40:26.481Z,23.63
2022-10-14T02:42:55.192Z,18.95
2022-10-14T02:45:26.248Z,18.35
2022-10-14T02:47:53.897Z,14.73
2022-10-14T02:50:21.533Z,17.73
2022-10-14T02:52:48.823Z,20.40
2022-10-14T02:55:15.846Z,20.42
2022-10-14T02:57:44.602Z,18.80
2022-10-14T03:00:12.175Z,19.48
2022-10-14T03:02:39.453Z,21.85
2022-10-14T03:05:07.636Z,19.97
2022-10-14T03:07:35.084Z,17.70
2022-10-14T03:10:06.321Z,20.55
2022-10-14T03:12:36.334Z,20.08
2022-10-14T03:15:03.999Z,20.05
2022-10-14T03:17:33.106Z,22.53
2022-10-14T03:20:05.475Z,22.95
2022-10-14T03:22:33.896Z,21.20
2022-10-14T03:25:01.545Z,20.08
2022-10-14T03:27:38.138Z,22.23
2022-10-14T03:30:10.326Z,22.73
2022-10-14T03:32:44.296Z,21.55
2022-10-14T03:35:14.156Z,22.80
2022-10-14T03:37:44.298Z,23.20
2022-10-14T03:40:12.925Z,20.15
2022-10-14T03:42:41.405Z,22.80
2022-10-14T03:45:09.140Z,22.83
2022-10-14T03:47:38.634Z,22.33
2022-10-14T03:50:06.062Z,23.33
2022-10-14T03:52:44.891Z,22.77
2022-10-14T03:55:21.309Z,23.23
2022-10-14T03:57:51.247Z,25.08
2022-10-14T04:00:19.451Z,23.05
2022-10-14T04:02:53.372Z,22.00
2022-10-14T04:05:33.990Z,21.00
2022-10-14T04:08:06.053Z,21.70
2022-10-14T04:10:35.043Z,23.95
2022-10-14T04:13:01.967Z,22.88
2022-10-14T04:15:36.819Z,23.30
2022-10-14T04:18:11.728Z,24.25
2022-10-14T04:20:40.010Z,23.03
2022-10-14T04:23:08.678Z,24.75
2022-10-14T04:25:39.209Z,25.35
2022-10-14T04:28:07.159Z,21.90
2022-10-14T04:30:44.326Z,22.20
2022-10-14T04:33:17.331Z,23.90
2022-10-14T04:35:44.522Z,25.70
2022-10-14T04:38:19.812Z,20.20
2022-10-14T04:40:54.249Z,24.45
2022-10-14T04:43:21.949Z,25.95
2022-10-14T04:45:49.911Z,26.90
2022-10-14T04:48:24.100Z,26.08
2022-10-14T04:50:52.619Z,27.15
2022-10-14T04:53:40.271Z,25.35
2022-10-14T04:56:19.664Z,25.90
2022-10-14T04:58:56.834Z,26.07
2022-10-14T05:01:35.479Z,27.08
2022-10-14T05:04:02.876Z,26.60
2022-10-14T05:06:35.336Z,26.33
2022-10-14T05:09:02.925Z,25.98
2022-10-14T05:11:30.181Z,27.30
2022-10-14T05:13:57.841Z,25.80
2022-10-14T05:16:27.882Z,26.38
2022-10-14T05:18:55.385Z,26.10
2022-10-14T05:21:23.875Z,27.38
2022-10-14T05:23:57.086Z,26.77
2022-10-14T05:26:26.785Z,28.13
2022-10-14T05:28:55.528Z,25.45
2022-10-14T05:31:23.743Z,24.73
2022-10-14T05:34:03.271Z,24.98
2022-10-14T05:36:30.535Z,24.67
2022-10-14T05:38:58.931Z,23.67
2022-10-14T05:41:30.543Z,23.35
2022-10-14T05:43:58.972Z,23.27
2022-10-14T05:46:25.967Z,22.95
2022-10-14T05:48:57.202Z,23.67
2022-10-14T05:51:25.049Z,22.05
2022-10-14T05:54:00.187Z,21.52
2022-10-14T05:56:27.232Z,20.20
2022-10-14T05:58:54.607Z,19.77
2022-10-14T06:01:22.027Z,18.00
2022-10-14T06:03:52.676Z,19.02
2022-10-14T06:06:20.028Z,19.50
2022-10-14T06:08:47.563Z,17.30
2022-10-14T06:11:14.752Z,17.33
2022-10-14T06:13:42.136Z,15.13
2022-10-14T06:16:10.944Z,14.10
2022-10-14T06:18:38.611Z,17.25
2022-10-14T06:21:06.400Z,15.75
2022-10-14T06:23:34.442Z,15.63
2022-10-14T06:26:05.302Z,14.63
2022-10-14T06:28:32.724Z,14.95
2022-10-14T06:31:00.122Z,14.55
2022-10-14T06:33:28.821Z,14.18
2022-10-14T06:35:56.303Z,14.43
2022-10-14T06:38:23.521Z,11.83
2022-10-14T06:40:51.973Z,13.02
2022-10-14T06:43:19.608Z,13.63
2022-10-14T06:45:47.363Z,13.77
2022-10-14T06:48:14.666Z,13.63
2022-10-14T06:50:42.254Z,13.60
2022-10-14T06:53:09.642Z,13.55
2022-10-14T06:55:36.469Z,14.45
2022-10-14T06:58:03.291Z,14.20
2022-10-14T07:00:30.517Z,13.82
2022-10-14T07:02:59.305Z,12.33
2022-10-14T07:05:26.755Z,11.60
2022-10-14T07:07:54.068Z,12.30
2022-10-14T07:10:21.436Z,12.23
2022-10-14T07:12:48.728Z,12.10
2022-10-14T07:15:15.994Z,11.67
2022-10-14T07:17:42.831Z,13.00
2022-10-14T07:20:10.377Z,13.35
2022-10-14T07:22:38.774Z,11.25
2022-10-14T07:25:06.582Z,12.50
2022-10-14T07:27:33.676Z,12.43
2022-10-14T07:30:01.700Z,11.77
2022-10-14T07:32:29.107Z,13.07
2022-10-14T07:34:56.341Z,13.07
2022-10-14T07:37:23.958Z,14.15
2022-10-14T07:39:51.639Z,13.70
2022-10-14T07:44:50.909Z,14.30
2022-10-14T07:47:18.206Z,14.18
2022-10-14T07:49:45.035Z,14.93
2022-10-14T07:52:11.916Z,15.83
2022-10-14T07:54:38.920Z,14.13
2022-10-14T07:57:06.136Z,14.88
2022-10-14T07:59:33.488Z,15.43
2022-10-14T08:02:01.072Z,16.13
2022-10-14T08:04:29.086Z,15.80
2022-10-14T08:06:56.106Z,14.50
2022-10-14T08:09:23.615Z,15.73
2022-10-14T08:11:50.534Z,14.95
2022-10-14T08:14:17.802Z,16.88
2022-10-14T08:16:45.854Z,15.60
2022-10-14T08:19:14.885Z,16.33
2022-10-14T08:21:43.240Z,14.50
2022-10-14T08:24:10.947Z,14.82
2022-10-14T08:26:52.698Z,17.10
2022-10-14T08:29:20.124Z,13.73
2022-10-14T08:31:47.652Z,9.88
2022-10-14T08:34:15.129Z,16.38
2022-10-14T08:36:42.469Z,17.25
2022-10-14T08:42:11.309Z,16.33
2022-10-14T08:44:51.568Z,16.50
2022-10-14T08:47:24.254Z,17.10
2022-10-14T08:50:02.603Z,16.70
2022-10-14T08:52:42.019Z,15.70
2022-10-14T08:55:27.693Z,17.33
2022-10-14T08:58:00.346Z,15.27
2022-10-14T09:00:29.721Z,15.63
2022-10-14T09:02:58.488Z,14.15
2022-10-14T09:05:26.711Z,14.40
2022-10-14T09:07:57.397Z,13.10
2022-10-14T09:10:34.527Z,13.05
2022-10-14T09:13:19.554Z,13.93
2022-10-14T09:15:54.931Z,15.25
2022-10-14T09:18:53.892Z,12.35
2022-10-14T09:21:52.113Z,13.37
2022-10-14T09:24:28.583Z,13.30
2022-10-14T09:27:00.366Z,13.05
2022-10-14T09:29:42.143Z,13.73
2022-10-14T09:32:15.522Z,10.52
2022-10-14T09:34:48.659Z,13.63
2022-10-14T09:37:34.793Z,13.38
2022-10-14T09:40:15.810Z,12.65
2022-10-14T09:42:48.058Z,12.73
2022-10-14T09:45:20.559Z,14.10
2022-10-14T09:48:07.686Z,12.07
2022-10-14T09:50:45.045Z,11.50
2022-10-14T09:53:20.761Z,12.98
2022-10-14T09:55:57.300Z,13.30
2022-10-14T09:58:43.823Z,12.13
2022-10-14T10:01:22.613Z,12.13
2022-10-14T10:03:51.005Z,12.27
2022-10-14T10:06:21.457Z,11.85
2022-10-14T10:08:53.976Z,9.45
2022-10-14T10:11:38.010Z,10.77
2022-10-14T10:14:32.392Z,12.27
2022-10-14T10:17:08.110Z,12.18
2022-10-14T10:19:37.251Z,12.93
2022-10-14T10:22:26.699Z,12.43
2022-10-14T10:25:06.224Z,12.30
2022-10-14T10:27:42.045Z,12.00
2022-10-14T10:30:20.953Z,11.13
2022-10-14T10:32:50.999Z,11.73
2022-10-14T10:35:18.221Z,10.25
2022-10-14T10:38:14.687Z,10.88
2022-10-14T10:41:19.225Z,8.40
2022-10-14T10:44:09.720Z,7.18
2022-10-14T10:47:14.907Z,8.48
2022-10-14T10:52:43.682Z,8.13
2022-10-14T10:55:31.705Z,7.13
2022-10-14T10:58:20.099Z,8.15
2022-10-14T11:01:29.332Z,8.48
2022-10-14T11:04:22.008Z,7.72
2022-10-14T11:07:38.008Z,8.43
2022-10-14T11:10:35.522Z,8.77
2022-10-14T11:13:40.093Z,7.63
2022-10-14T11:16:07.639Z,6.90
2022-10-14T11:18:56.086Z,7.95
2022-10-14T11:21:30.813Z,8.32
2022-10-14T11:24:09.711Z,8.17
2022-10-14T11:26:51.752Z,8.98
2022-10-14T11:29:21.581Z,8.60
2022-10-14T11:32:12.496Z,7.72
2022-10-14T11:34:55.190Z,7.43
2022-10-14T11:37:54.314Z,8.30
2022-10-14T11:40:30.534Z,8.20
2022-10-14T11:43:28.719Z,7.32
2022-10-14T11:46:05.122Z,7.18
2022-10-14T11:48:52.654Z,6.82
2022-10-14T11:51:47.385Z,6.63
2022-10-14T11:54:15.042Z,5.72
2022-10-14T11:56:50.974Z,7.05
2022-10-14T11:59:18.169Z,5.82
2022-10-14T12:01:48.177Z,6.85
2022-10-14T12:04:43.883Z,6.03
2022-10-14T12:07:18.481Z,5.38
2022-10-14T12:09:59.766Z,6.70
2022-10-14T12:12:29.063Z,6.13
2022-10-14T12:15:01.125Z,6.47
2022-10-14T12:17:36.505Z,6.67
2022-10-14T12:20:45.095Z,6.82
2022-10-14T12:23:23.542Z,6.03
2022-10-14T12:26:01.128Z,8.10
2022-10-14T12:28:34.506Z,7.90
2022-10-14T12:31:35.405Z,7.60
2022-10-14T12:34:11.441Z,7.80
2022-10-14T12:36:40.555Z,7.82
2022-10-14T12:39:19.344Z,8.02
2022-10-14T12:41:47.868Z,7.15
2022-10-14T12:44:18.920Z,8.70
2022-10-14T12:46:49.058Z,7.32
2022-10-14T12:49:36.253Z,8.05
2022-10-14T12:52:08.642Z,8.02
2022-10-14T12:54:38.411Z,7.90
2022-10-14T12:57:18.227Z,8.20
2022-10-14T12:59:50.242Z,7.15
2022-10-14T13:02:35.142Z,8.35
2022-10-14T13:05:06.912Z,8.85
2022-10-14T13:07:42.193Z,8.50
2022-10-14T13:10:41.684Z,8.27
2022-10-14T13:13:47.736Z,8.75
2022-10-14T13:16:23.773Z,8.30
2022-10-14T13:19:01.648Z,8.02
2022-10-14T13:21:31.143Z,7.90
2022-10-14T13:24:11.215Z,8.97
2022-10-14T13:26:46.584Z,8.93
2022-10-14T13:29:30.275Z,6.80
2022-10-14T13:32:08.779Z,7.50
2022-10-14T13:34:51.653Z,7.53
2022-10-14T13:37:34.995Z,7.53
2022-10-14T13:40:27.327Z,6.93
2022-10-14T13:42:58.208Z,5.65
2022-10-14T13:45:47.853Z,6.00
2022-10-14T13:48:21.208Z,5.60
2022-10-14T13:50:54.140Z,6.73
2022-10-14T13:53:26.020Z,6.28
2022-10-14T13:55:54.726Z,6.43
2022-10-14T13:58:23.565Z,6.28
2022-10-14T14:00:59.205Z,6.03
2022-10-14T14:03:26.445Z,6.50
2022-10-14T14:05:53.915Z,6.90
2022-10-14T14:08:40.790Z,7.40
2022-10-14T14:11:17.980Z,6.95
2022-10-14T14:14:09.573Z,7.10
2022-10-14T14:16:40.736Z,6.27
2022-10-14T14:19:09.700Z,7.35
2022-10-14T14:21:37.941Z,7.75
2022-10-14T14:24:15.833Z,7.88
2022-10-14T14:26:49.050Z,9.32
2022-10-14T14:29:18.846Z,8.77
2022-10-14T14:32:05.638Z,8.40
2022-10-14T14:34:35.790Z,9.27
2022-10-14T14:37:32.057Z,8.18
2022-10-14T14:40:02.366Z,8.40
2022-10-14T14:42:36.069Z,7.80
2022-10-14T14:45:12.652Z,8.45
2022-10-14T14:47:41.039Z,8.20
2022-10-14T14:50:29.392Z,8.68
2022-10-14T14:53:04.621Z,8.80
2022-10-14T14:55:53.953Z,8.47
2022-10-14T14:58:44.711Z,8.40
2022-10-14T15:01:26.394Z,8.80
2022-10-14T15:04:13.074Z,8.90
2022-10-14T15:06:59.371Z,8.85
2022-10-14T15:09:35.082Z,9.33
2022-10-14T15:12:04.998Z,8.57
2022-10-14T15:14:52.674Z,6.93
2022-10-14T15:17:30.539Z,8.77
2022-10-14T15:20:19.593Z,8.68
2022-10-14T15:22:50.476Z,9.50
2022-10-14T15:25:18.663Z,9.30
2022-10-14T15:27:52.751Z,9.10
2022-10-14T15:30:19.765Z,9.15
2022-10-14T15:32:47.184Z,9.02
2022-10-14T15:35:16.378Z,9.90
2022-10-14T15:37:43.388Z,8.52
2022-10-14T15:40:17.666Z,10.63
2022-10-14T15:42:45.405Z,9.82
2022-10-14T15:45:13.149Z,9.20
2022-10-14T15:47:40.678Z,9.60
2022-10-14T15:50:18.210Z,11.63
2022-10-14T15:52:53.467Z,9.50
2022-10-14T15:55:25.693Z,10.07
2022-10-14T15:57:53.038Z,11.52
2022-10-14T16:00:22.321Z,14.87
2022-10-14T16:02:54.336Z,13.48
2022-10-14T16:05:22.512Z,11.88
2022-10-14T16:07:50.091Z,15.02
2022-10-14T16:10:19.956Z,17.40
2022-10-14T16:12:47.227Z,14.00
2022-10-14T16:15:23.452Z,16.55
2022-10-14T16:17:52.883Z,32.20
2022-10-14T16:20:21.436Z,26.13
2022-10-14T16:22:49.171Z,12.02
2022-10-14T16:25:31.708Z,12.40
2022-10-14T16:27:58.719Z,12.40
2022-10-14T16:30:27.981Z,13.38
2022-10-14T16:32:55.414Z,13.93
2022-10-14T16:35:22.697Z,14.98
2022-10-14T16:37:49.661Z,16.03
2022-10-14T16:40:16.918Z,14.85
2022-10-14T16:42:44.200Z,16.45
2022-10-14T16:45:11.793Z,65.18
2022-10-14T16:47:40.673Z,40.15
2022-10-14T16:50:09.449Z,36.47
2022-10-14T16:52:55.883Z,36.50
2022-10-14T16:55:23.442Z,19.85
2022-10-14T16:57:50.263Z,15.43
2022-10-14T17:02:46.013Z,23.53
2022-10-14T17:05:13.926Z,17.40
2022-10-14T17:07:41.327Z,16.40
2022-10-14T17:10:08.710Z,21.88
2022-10-14T17:12:36.353Z,25.83
2022-10-14T17:15:03.604Z,25.33
2022-10-14T17:17:30.378Z,19.33
2022-10-14T17:19:57.664Z,19.75
2022-10-14T17:22:24.882Z,19.30
2022-10-14T17:24:52.274Z,18.42
2022-10-14T17:27:22.357Z,16.87
2022-10-14T17:29:49.211Z,14.68
2022-10-14T17:32:17.007Z,14.45
2022-10-14T17:34:44.248Z,16.58
2022-10-14T17:37:11.431Z,28.13
2022-10-14T17:39:38.714Z,16.80
2022-10-14T17:42:06.015Z,16.10
2022-10-14T17:44:33.207Z,15.68
2022-10-14T17:47:01.987Z,15.90
2022-10-14T17:49:31.147Z,15.70
2022-10-14T17:52:02.253Z,17.73
2022-10-14T17:54:32.462Z,16.25
2022-10-14T17:56:59.664Z,17.55
2022-10-14T17:59:27.414Z,17.50
2022-10-14T18:02:02.783Z,19.65
2022-10-14T18:04:30.609Z,23.80
2022-10-14T18:06:58.940Z,21.90
2022-10-14T18:09:26.179Z,23.90
2022-10-14T18:12:08.390Z,23.13
2022-10-14T18:14:36.358Z,18.30
2022-10-14T18:17:05.111Z,22.47
2022-10-14T18:19:32.567Z,23.02
2022-10-14T18:21:59.980Z,23.60
2022-10-14T18:24:27.373Z,23.83
2022-10-14T18:26:54.291Z,30.48
2022-10-14T18:29:21.798Z,35.00
2022-10-14T18:31:49.929Z,20.52
2022-10-14T18:34:17.211Z,44.85
2022-10-14T18:36:44.566Z,39.75
2022-10-14T18:39:12.545Z,33.38
2022-10-14T18:41:41.747Z,22.67
2022-10-14T18:44:08.981Z,27.00
2022-10-14T18:46:37.862Z,17.33
2022-10-14T18:49:06.258Z,15.18
2022-10-14T18:51:37.648Z,15.27
2022-10-14T18:54:19.524Z,15.93
2022-10-14T18:56:47.129Z,13.57
2022-10-14T18:59:18.315Z,15.45
2022-10-14T19:01:46.464Z,14.43
2022-10-14T19:04:14.994Z,16.70
2022-10-14T19:06:47.092Z,11.90
2022-10-14T19:09:14.537Z,13.75
2022-10-14T19:11:42.024Z,14.82
2022-10-14T19:14:09.926Z,15.55
2022-10-14T19:16:38.482Z,10.90
2022-10-14T19:19:14.127Z,15.10
2022-10-14T19:21:41.585Z,14.52
2022-10-14T19:24:09.001Z,16.15
2022-10-14T19:26:38.139Z,16.27
2022-10-14T19:29:09.022Z,14.93
2022-10-14T19:31:38.762Z,14.97
2022-10-14T19:34:07.925Z,16.13
2022-10-14T19:36:37.363Z,14.25
2022-10-14T19:39:05.538Z,16.63
2022-10-14T19:41:35.574Z,15.45
2022-10-14T19:44:02.768Z,15.87
2022-10-14T19:46:30.260Z,17.00
2022-10-14T19:49:04.755Z,16.27
2022-10-14T19:51:33.299Z,17.80
2022-10-14T19:54:00.541Z,14.35
2022-10-14T19:56:28.337Z,16.57
2022-10-14T19:58:57.145Z,21.17
2022-10-14T20:01:26.742Z,23.35
2022-10-14T20:03:54.523Z,24.80
2022-10-14T20:06:22.623Z,20.98
2022-10-14T20:08:50.073Z,20.37
2022-10-14T20:11:19.576Z,19.98
2022-10-14T20:13:47.357Z,20.05
2022-10-14T20:16:14.685Z,14.65
2022-10-14T20:18:42.293Z,17.65
2022-10-14T20:21:12.525Z,20.17
2022-10-14T20:23:40.017Z,15.30
2022-10-14T20:26:10.963Z,17.55
2022-10-14T20:28:38.817Z,19.42
2022-10-14T20:31:10.637Z,19.83
2022-10-14T20:33:38.041Z,18.47
2022-10-14T20:36:12.057Z,18.48
2022-10-14T20:38:40.096Z,18.73
2022-10-14T20:41:26.113Z,17.02
2022-10-14T20:43:54.221Z,15.93
2022-10-14T20:46:22.624Z,16.57
2022-10-14T20:48:53.646Z,17.13
2022-10-14T20:51:22.612Z,17.70
2022-10-14T20:53:50.038Z,17.30
2022-10-14T20:56:17.397Z,17.35
2022-10-14T20:58:44.939Z,17.93
2022-10-14T21:01:15.083Z,18.17
2022-10-14T21:03:44.209Z,15.45
2022-10-14T21:06:13.461Z,16.77
2022-10-14T21:08:40.745Z,17.10
2022-10-14T21:11:13.969Z,17.83
2022-10-14T21:13:51.194Z,17.05
2022-10-14T21:16:22.347Z,17.45
2022-10-14T21:18:57.493Z,17.65
2022-10-14T21:21:27.097Z,15.88
2022-10-14T21:23:54.973Z,17.37
2022-10-14T21:26:22.244Z,17.50
2022-10-14T21:28:49.716Z,17.17
2022-10-14T21:31:19.293Z,18.90
2022-10-14T21:33:47.669Z,19.17
2022-10-14T21:36:16.507Z,18.53
2022-10-14T21:38:43.792Z,19.02
2022-10-14T21:41:11.875Z,16.65
2022-10-14T21:43:39.365Z,15.10
2022-10-14T21:46:16.975Z,16.17
2022-10-14T21:48:45.064Z,16.37
2022-10-14T21:51:17.928Z,16.13
2022-10-14T21:53:46.008Z,15.60
2022-10-14T21:56:14.792Z,15.98
2022-10-14T21:58:42.497Z,15.15
2022-10-14T22:01:20.999Z,13.90
2022-10-14T22:03:52.428Z,11.20
2022-10-14T22:06:19.649Z,11.98
2022-10-14T22:08:51.893Z,13.40
2022-10-14T22:11:22.210Z,9.63
2022-10-14T22:13:50.659Z,14.67
2022-10-14T22:16:17.893Z,16.33
2022-10-14T22:18:46.735Z,15.52
2022-10-14T22:21:15.649Z,16.15
2022-10-14T22:23:42.581Z,18.35
2022-10-14T22:26:12.231Z,12.07
2022-10-14T22:28:39.629Z,18.23
2022-10-14T22:31:08.618Z,13.20
2022-10-14T22:33:36.940Z,14.00
2022-10-14T22:36:08.110Z,14.45
2022-10-14T22:38:35.866Z,17.17
2022-10-14T22:41:04.613Z,13.82
2022-10-14T22:43:32.129Z,15.07
2022-10-14T22:46:07.654Z,10.27
2022-10-14T22:48:35.669Z,12.00
2022-10-14T22:51:05.384Z,12.80
2022-10-14T22:53:33.032Z,9.45
2022-10-14T22:56:00.437Z,14.73
2022-10-14T22:58:27.886Z,14.20
2022-10-14T23:00:55.291Z,14.38
2022-10-14T23:03:22.534Z,13.07
2022-10-14T23:05:49.418Z,13.93
2022-10-14T23:08:17.656Z,13.43
2022-10-14T23:10:45.087Z,12.85
2022-10-14T23:13:12.142Z,13.13
2022-10-14T23:15:39.343Z,11.57
2022-10-14T23:18:06.106Z,12.35
2022-10-14T23:20:34.512Z,13.13
2022-10-14T23:23:01.516Z,12.75
2022-10-14T23:25:28.788Z,13.18
2022-10-14T23:27:56.022Z,12.30
2022-10-14T23:30:23.408Z,11.68
2022-10-14T23:32:50.794Z,13.73
2022-10-14T23:35:18.010Z,13.93
2022-10-14T23:37:45.339Z,15.38
2022-10-14T23:40:12.532Z,17.33
2022-10-14T23:42:39.712Z,15.18
2022-10-14T23:45:08.169Z,15.52
2022-10-14T23:47:35.545Z,16.30
2022-10-14T23:50:02.649Z,17.95
2022-10-14T23:52:29.881Z,16.37
2022-10-14T23:57:29.149Z,15.93
2022-10-14T23:59:56.396Z,16.60
